sensor_id;sensor_type;location;lat;lon;timestamp;P1;durP1;ratioP1;P2;durP2;ratioP2
58842;SDS011;44614;54.356;10.100;2022-12-24T00:00:21;9.65;;;4.30;;
58842;SDS011;44614;54.356;10.100;2022-12-24T00:02:48;9.65;;;4.30;;
58842;SDS011;44614;54.356;10.100;2022-12-24T00:05:14;7.68;;;4.07;;
58842;SDS011;44614;54.356;10.100;2022-12-24T00:07:39;7.68;;;3.13;;
58842;SDS011;44614;54.356;10.100;2022-12-24T00:10:05;7.00;;;3.95;;
58842;SDS011;44614;54.356;10.100;2022-12-24T00:12:31;9.38;;;4.07;;
58842;SDS011;44614;54.356;10.100;2022-12-24T00:14:56;8.20;;;4.72;;
58842;SDS011;44614;54.356;10.100;2022-12-24T00:17:22;10.73;;;3.67;;
58842;SDS011;44614;54.356;10.100;2022-12-24T00:19:47;9.23;;;4.17;;
58842;SDS011;44614;54.356;10.100;2022-12-24T00:22:12;6.70;;;4.13;;
58842;SDS011;44614;54.356;10.100;2022-12-24T00:24:38;7.78;;;4.43;;
58842;SDS011;44614;54.356;10.100;2022-12-24T00:27:03;9.48;;;5.15;;
58842;SDS011;44614;54.356;10.100;2022-12-24T00:29:30;13.95;;;4.57;;
58842;SDS011;44614;54.356;10.100;2022-12-24T00:31:55;8.25;;;3.10;;
58842;SDS011;44614;54.356;10.100;2022-12-24T00:34:21;7.77;;;4.67;;
58842;SDS011;44614;54.356;10.100;2022-12-24T00:36:47;12.00;;;4.60;;
58842;SDS011;44614;54.356;10.100;2022-12-24T00:39:12;6.97;;;3.10;;
58842;SDS011;44614;54.356;10.100;2022-12-24T00:41:38;12.60;;;4.28;;
58842;SDS011;44614;54.356;10.100;2022-12-24T00:44:04;9.82;;;4.43;;
58842;SDS011;44614;54.356;10.100;2022-12-24T00:46:31;11.25;;;5.35;;
58842;SDS011;44614;54.356;10.100;2022-12-24T00:48:58;11.38;;;3.88;;
58842;SDS011;44614;54.356;10.100;2022-12-24T00:51:24;8.50;;;4.10;;
58842;SDS011;44614;54.356;10.100;2022-12-24T00:53:50;15.07;;;4.75;;
58842;SDS011;44614;54.356;10.100;2022-12-24T00:56:16;9.10;;;3.33;;
58842;SDS011;44614;54.356;10.100;2022-12-24T00:58:42;28.83;;;5.80;;
58842;SDS011;44614;54.356;10.100;2022-12-24T01:01:07;12.75;;;4.78;;
58842;SDS011;44614;54.356;10.100;2022-12-24T01:03:33;11.13;;;4.30;;
58842;SDS011;44614;54.356;10.100;2022-12-24T01:06:02;13.07;;;4.22;;
58842;SDS011;44614;54.356;10.100;2022-12-24T01:08:28;7.97;;;3.90;;
58842;SDS011;44614;54.356;10.100;2022-12-24T01:10:54;9.88;;;4.72;;
58842;SDS011;44614;54.356;10.100;2022-12-24T01:13:19;12.25;;;5.00;;
58842;SDS011;44614;54.356;10.100;2022-12-24T01:15:45;10.93;;;4.55;;
58842;SDS011;44614;54.356;10.100;2022-12-24T01:18:11;9.43;;;4.10;;
58842;SDS011;44614;54.356;10.100;2022-12-24T01:20:36;8.57;;;4.37;;
58842;SDS011;44614;54.356;10.100;2022-12-24T01:23:01;16.97;;;4.70;;
58842;SDS011;44614;54.356;10.100;2022-12-24T01:25:27;9.73;;;4.13;;
58842;SDS011;44614;54.356;10.100;2022-12-24T01:27:52;10.98;;;4.95;;
58842;SDS011;44614;54.356;10.100;2022-12-24T01:30:18;9.00;;;4.63;;
58842;SDS011;44614;54.356;10.100;2022-12-24T01:32:43;11.93;;;5.00;;
58842;SDS011;44614;54.356;10.100;2022-12-24T01:35:08;13.37;;;5.90;;
58842;SDS011;44614;54.356;10.100;2022-12-24T01:37:34;11.70;;;5.03;;
58842;SDS011;44614;54.356;10.100;2022-12-24T01:39:59;9.98;;;4.88;;
58842;SDS011;44614;54.356;10.100;2022-12-24T01:42:44;11.98;;;5.20;;
58842;SDS011;44614;54.356;10.100;2022-12-24T01:45:47;11.73;;;4.60;;
58842;SDS011;44614;54.356;10.100;2022-12-24T01:53:47;15.25;;;5.05;;
58842;SDS011;44614;54.356;10.100;2022-12-24T01:56:17;9.98;;;4.47;;
58842;SDS011;44614;54.356;10.100;2022-12-24T01:58:45;13.32;;;4.55;;
58842;SDS011;44614;54.356;10.100;2022-12-24T02:01:14;12.70;;;5.63;;
58842;SDS011;44614;54.356;10.100;2022-12-24T02:03:40;8.77;;;4.03;;
58842;SDS011;44614;54.356;10.100;2022-12-24T02:06:05;9.75;;;4.75;;
58842;SDS011;44614;54.356;10.100;2022-12-24T02:08:32;12.38;;;4.97;;
58842;SDS011;44614;54.356;10.100;2022-12-24T02:13:35;6.78;;;3.75;;
58842;SDS011;44614;54.356;10.100;2022-12-24T02:18:48;8.40;;;4.10;;
58842;SDS011;44614;54.356;10.100;2022-12-24T02:24:18;13.05;;;4.63;;
58842;SDS011;44614;54.356;10.100;2022-12-24T02:27:11;12.68;;;4.13;;
58842;SDS011;44614;54.356;10.100;2022-12-24T02:32:52;13.40;;;4.22;;
58842;SDS011;44614;54.356;10.100;2022-12-24T02:35:41;11.88;;;4.03;;
58842;SDS011;44614;54.356;10.100;2022-12-24T02:41:19;10.50;;;3.97;;
58842;SDS011;44614;54.356;10.100;2022-12-24T02:43:48;14.32;;;5.15;;
58842;SDS011;44614;54.356;10.100;2022-12-24T02:46:20;14.75;;;4.45;;
58842;SDS011;44614;54.356;10.100;2022-12-24T02:48:50;8.77;;;4.22;;
58842;SDS011;44614;54.356;10.100;2022-12-24T02:51:16;11.82;;;4.13;;
58842;SDS011;44614;54.356;10.100;2022-12-24T02:53:48;14.05;;;4.30;;
58842;SDS011;44614;54.356;10.100;2022-12-24T02:56:19;8.17;;;3.90;;
58842;SDS011;44614;54.356;10.100;2022-12-24T03:09:57;7.72;;;3.65;;
58842;SDS011;44614;54.356;10.100;2022-12-24T03:12:42;10.65;;;4.30;;
58842;SDS011;44614;54.356;10.100;2022-12-24T03:15:12;15.25;;;4.40;;
58842;SDS011;44614;54.356;10.100;2022-12-24T03:17:39;9.65;;;4.55;;
58842;SDS011;44614;54.356;10.100;2022-12-24T03:20:08;11.95;;;4.20;;
58842;SDS011;44614;54.356;10.100;2022-12-24T03:22:36;10.27;;;4.13;;
58842;SDS011;44614;54.356;10.100;2022-12-24T03:25:03;12.07;;;3.97;;
58842;SDS011;44614;54.356;10.100;2022-12-24T03:27:29;14.23;;;4.38;;
58842;SDS011;44614;54.356;10.100;2022-12-24T03:29:56;12.70;;;3.70;;
58842;SDS011;44614;54.356;10.100;2022-12-24T03:32:29;11.63;;;4.95;;
58842;SDS011;44614;54.356;10.100;2022-12-24T03:34:55;13.48;;;4.25;;
58842;SDS011;44614;54.356;10.100;2022-12-24T03:37:21;12.15;;;4.13;;
58842;SDS011;44614;54.356;10.100;2022-12-24T03:39:47;10.73;;;4.40;;
58842;SDS011;44614;54.356;10.100;2022-12-24T03:42:12;11.77;;;4.83;;
58842;SDS011;44614;54.356;10.100;2022-12-24T03:44:38;19.23;;;5.28;;
58842;SDS011;44614;54.356;10.100;2022-12-24T03:47:03;8.07;;;3.95;;
58842;SDS011;44614;54.356;10.100;2022-12-24T03:49:29;10.48;;;3.70;;
58842;SDS011;44614;54.356;10.100;2022-12-24T03:51:54;11.52;;;4.28;;
58842;SDS011;44614;54.356;10.100;2022-12-24T03:54:20;15.88;;;5.25;;
58842;SDS011;44614;54.356;10.100;2022-12-24T03:56:45;16.70;;;5.68;;
58842;SDS011;44614;54.356;10.100;2022-12-24T03:59:10;14.27;;;4.23;;
58842;SDS011;44614;54.356;10.100;2022-12-24T04:01:36;10.50;;;5.10;;
58842;SDS011;44614;54.356;10.100;2022-12-24T04:04:01;9.00;;;4.63;;
58842;SDS011;44614;54.356;10.100;2022-12-24T04:06:26;9.88;;;5.13;;
58842;SDS011;44614;54.356;10.100;2022-12-24T04:08:51;10.37;;;3.97;;
58842;SDS011;44614;54.356;10.100;2022-12-24T04:11:17;10.27;;;4.47;;
58842;SDS011;44614;54.356;10.100;2022-12-24T04:13:43;7.80;;;4.07;;
58842;SDS011;44614;54.356;10.100;2022-12-24T04:16:10;12.13;;;4.53;;
58842;SDS011;44614;54.356;10.100;2022-12-24T04:18:36;11.10;;;4.03;;
58842;SDS011;44614;54.356;10.100;2022-12-24T04:21:03;9.93;;;3.92;;
58842;SDS011;44614;54.356;10.100;2022-12-24T04:23:30;11.73;;;4.50;;
58842;SDS011;44614;54.356;10.100;2022-12-24T04:26:00;12.45;;;3.83;;
58842;SDS011;44614;54.356;10.100;2022-12-24T04:28:29;13.52;;;5.35;;
58842;SDS011;44614;54.356;10.100;2022-12-24T04:30:59;11.20;;;4.13;;
58842;SDS011;44614;54.356;10.100;2022-12-24T04:33:26;8.13;;;3.90;;
58842;SDS011;44614;54.356;10.100;2022-12-24T04:35:51;9.43;;;4.65;;
58842;SDS011;44614;54.356;10.100;2022-12-24T04:38:17;10.32;;;4.22;;
58842;SDS011;44614;54.356;10.100;2022-12-24T04:40:42;13.00;;;4.97;;
58842;SDS011;44614;54.356;10.100;2022-12-24T04:43:07;11.38;;;4.43;;
58842;SDS011;44614;54.356;10.100;2022-12-24T04:45:33;13.80;;;4.60;;
58842;SDS011;44614;54.356;10.100;2022-12-24T04:47:58;9.55;;;4.45;;
58842;SDS011;44614;54.356;10.100;2022-12-24T04:50:23;10.50;;;4.90;;
58842;SDS011;44614;54.356;10.100;2022-12-24T04:52:49;10.03;;;4.07;;
58842;SDS011;44614;54.356;10.100;2022-12-24T04:55:14;9.17;;;3.57;;
58842;SDS011;44614;54.356;10.100;2022-12-24T04:57:39;11.13;;;3.60;;
58842;SDS011;44614;54.356;10.100;2022-12-24T05:00:05;8.30;;;3.65;;
58842;SDS011;44614;54.356;10.100;2022-12-24T05:02:31;9.18;;;4.68;;
58842;SDS011;44614;54.356;10.100;2022-12-24T05:04:57;12.70;;;4.57;;
58842;SDS011;44614;54.356;10.100;2022-12-24T05:07:22;7.43;;;3.28;;
58842;SDS011;44614;54.356;10.100;2022-12-24T05:09:47;11.00;;;4.00;;
58842;SDS011;44614;54.356;10.100;2022-12-24T05:12:13;13.40;;;3.90;;
58842;SDS011;44614;54.356;10.100;2022-12-24T05:14:38;10.48;;;3.55;;
58842;SDS011;44614;54.356;10.100;2022-12-24T05:17:04;12.63;;;5.25;;
58842;SDS011;44614;54.356;10.100;2022-12-24T05:19:30;7.05;;;4.50;;
58842;SDS011;44614;54.356;10.100;2022-12-24T05:21:55;14.40;;;4.22;;
58842;SDS011;44614;54.356;10.100;2022-12-24T05:24:39;8.98;;;4.35;;
58842;SDS011;44614;54.356;10.100;2022-12-24T05:27:23;9.23;;;3.28;;
58842;SDS011;44614;54.356;10.100;2022-12-24T05:29:48;8.13;;;3.63;;
58842;SDS011;44614;54.356;10.100;2022-12-24T05:32:13;10.63;;;3.97;;
58842;SDS011;44614;54.356;10.100;2022-12-24T05:34:39;10.20;;;3.63;;
58842;SDS011;44614;54.356;10.100;2022-12-24T05:37:04;9.07;;;3.25;;
58842;SDS011;44614;54.356;10.100;2022-12-24T05:39:29;9.00;;;4.22;;
58842;SDS011;44614;54.356;10.100;2022-12-24T05:41:54;11.23;;;3.60;;
58842;SDS011;44614;54.356;10.100;2022-12-24T05:44:20;22.20;;;4.80;;
58842;SDS011;44614;54.356;10.100;2022-12-24T05:46:45;9.65;;;4.80;;
58842;SDS011;44614;54.356;10.100;2022-12-24T05:49:11;9.85;;;4.10;;
58842;SDS011;44614;54.356;10.100;2022-12-24T05:51:36;10.95;;;4.72;;
58842;SDS011;44614;54.356;10.100;2022-12-24T05:54:04;10.65;;;4.53;;
58842;SDS011;44614;54.356;10.100;2022-12-24T05:56:29;11.13;;;4.70;;
58842;SDS011;44614;54.356;10.100;2022-12-24T05:58:55;11.60;;;4.10;;
58842;SDS011;44614;54.356;10.100;2022-12-24T06:01:22;11.13;;;3.80;;
58842;SDS011;44614;54.356;10.100;2022-12-24T06:03:47;9.57;;;4.43;;
58842;SDS011;44614;54.356;10.100;2022-12-24T06:06:17;8.20;;;3.40;;
58842;SDS011;44614;54.356;10.100;2022-12-24T06:08:45;8.02;;;4.22;;
58842;SDS011;44614;54.356;10.100;2022-12-24T06:11:12;12.57;;;4.78;;
58842;SDS011;44614;54.356;10.100;2022-12-24T06:13:39;10.75;;;4.28;;
58842;SDS011;44614;54.356;10.100;2022-12-24T06:16:06;12.13;;;4.10;;
58842;SDS011;44614;54.356;10.100;2022-12-24T06:18:32;10.35;;;4.53;;
58842;SDS011;44614;54.356;10.100;2022-12-24T06:23:25;13.17;;;4.53;;
58842;SDS011;44614;54.356;10.100;2022-12-24T06:25:54;10.48;;;4.60;;
58842;SDS011;44614;54.356;10.100;2022-12-24T06:28:21;8.75;;;3.67;;
58842;SDS011;44614;54.356;10.100;2022-12-24T06:30:48;12.48;;;4.05;;
58842;SDS011;44614;54.356;10.100;2022-12-24T06:33:14;7.57;;;3.40;;
58842;SDS011;44614;54.356;10.100;2022-12-24T06:35:40;11.27;;;4.27;;
58842;SDS011;44614;54.356;10.100;2022-12-24T06:38:06;9.15;;;3.92;;
58842;SDS011;44614;54.356;10.100;2022-12-24T06:40:31;11.88;;;5.05;;
58842;SDS011;44614;54.356;10.100;2022-12-24T06:42:57;9.85;;;3.72;;
58842;SDS011;44614;54.356;10.100;2022-12-24T06:45:22;11.18;;;4.43;;
58842;SDS011;44614;54.356;10.100;2022-12-24T06:47:48;8.82;;;4.93;;
58842;SDS011;44614;54.356;10.100;2022-12-24T06:50:13;13.38;;;4.45;;
58842;SDS011;44614;54.356;10.100;2022-12-24T06:52:38;7.93;;;3.70;;
58842;SDS011;44614;54.356;10.100;2022-12-24T06:55:04;8.20;;;3.90;;
58842;SDS011;44614;54.356;10.100;2022-12-24T06:57:30;10.82;;;4.38;;
58842;SDS011;44614;54.356;10.100;2022-12-24T06:59:56;11.52;;;4.10;;
58842;SDS011;44614;54.356;10.100;2022-12-24T07:02:22;12.40;;;4.83;;
58842;SDS011;44614;54.356;10.100;2022-12-24T07:04:48;9.30;;;3.88;;
58842;SDS011;44614;54.356;10.100;2022-12-24T07:07:13;11.77;;;3.65;;
58842;SDS011;44614;54.356;10.100;2022-12-24T07:09:38;16.33;;;3.97;;
58842;SDS011;44614;54.356;10.100;2022-12-24T07:12:04;11.30;;;3.97;;
58842;SDS011;44614;54.356;10.100;2022-12-24T07:14:29;8.18;;;4.10;;
58842;SDS011;44614;54.356;10.100;2022-12-24T07:16:54;12.95;;;4.57;;
58842;SDS011;44614;54.356;10.100;2022-12-24T07:19:21;8.87;;;3.27;;
58842;SDS011;44614;54.356;10.100;2022-12-24T07:21:46;8.35;;;4.13;;
58842;SDS011;44614;54.356;10.100;2022-12-24T07:24:13;14.20;;;4.38;;
58842;SDS011;44614;54.356;10.100;2022-12-24T07:26:39;12.05;;;4.70;;
58842;SDS011;44614;54.356;10.100;2022-12-24T07:29:04;10.70;;;4.00;;
58842;SDS011;44614;54.356;10.100;2022-12-24T07:31:29;8.73;;;4.72;;
58842;SDS011;44614;54.356;10.100;2022-12-24T07:33:55;14.75;;;4.32;;
58842;SDS011;44614;54.356;10.100;2022-12-24T07:36:20;10.70;;;3.50;;
58842;SDS011;44614;54.356;10.100;2022-12-24T07:38:46;12.65;;;4.35;;
58842;SDS011;44614;54.356;10.100;2022-12-24T07:41:12;8.32;;;4.05;;
58842;SDS011;44614;54.356;10.100;2022-12-24T07:43:38;7.13;;;3.17;;
58842;SDS011;44614;54.356;10.100;2022-12-24T07:46:03;12.57;;;4.18;;
58842;SDS011;44614;54.356;10.100;2022-12-24T07:48:29;11.38;;;4.45;;
58842;SDS011;44614;54.356;10.100;2022-12-24T07:50:55;11.48;;;4.38;;
58842;SDS011;44614;54.356;10.100;2022-12-24T07:53:21;12.18;;;4.53;;
58842;SDS011;44614;54.356;10.100;2022-12-24T07:55:47;12.27;;;4.60;;
58842;SDS011;44614;54.356;10.100;2022-12-24T07:58:13;12.45;;;5.78;;
58842;SDS011;44614;54.356;10.100;2022-12-24T08:00:39;12.05;;;4.55;;
58842;SDS011;44614;54.356;10.100;2022-12-24T08:03:04;7.80;;;3.13;;
58842;SDS011;44614;54.356;10.100;2022-12-24T08:05:33;12.55;;;4.43;;
58842;SDS011;44614;54.356;10.100;2022-12-24T08:07:59;9.70;;;4.05;;
58842;SDS011;44614;54.356;10.100;2022-12-24T08:10:25;16.33;;;4.53;;
58842;SDS011;44614;54.356;10.100;2022-12-24T08:12:50;10.43;;;3.67;;
58842;SDS011;44614;54.356;10.100;2022-12-24T08:15:16;14.10;;;5.80;;
58842;SDS011;44614;54.356;10.100;2022-12-24T08:17:41;12.00;;;5.43;;
58842;SDS011;44614;54.356;10.100;2022-12-24T08:20:07;12.18;;;5.68;;
58842;SDS011;44614;54.356;10.100;2022-12-24T08:22:32;15.57;;;5.28;;
58842;SDS011;44614;54.356;10.100;2022-12-24T08:24:58;11.65;;;4.53;;
58842;SDS011;44614;54.356;10.100;2022-12-24T08:27:23;10.80;;;4.57;;
58842;SDS011;44614;54.356;10.100;2022-12-24T08:29:48;15.73;;;6.10;;
58842;SDS011;44614;54.356;10.100;2022-12-24T08:32:14;10.32;;;4.82;;
58842;SDS011;44614;54.356;10.100;2022-12-24T08:34:39;9.70;;;5.18;;
58842;SDS011;44614;54.356;10.100;2022-12-24T08:37:05;13.25;;;4.75;;
58842;SDS011;44614;54.356;10.100;2022-12-24T08:39:30;10.27;;;3.92;;
58842;SDS011;44614;54.356;10.100;2022-12-24T08:41:55;15.65;;;5.88;;
58842;SDS011;44614;54.356;10.100;2022-12-24T08:44:21;8.77;;;4.30;;
58842;SDS011;44614;54.356;10.100;2022-12-24T08:46:46;10.85;;;4.78;;
58842;SDS011;44614;54.356;10.100;2022-12-24T08:49:11;11.63;;;4.00;;
58842;SDS011;44614;54.356;10.100;2022-12-24T08:51:37;11.40;;;4.22;;
58842;SDS011;44614;54.356;10.100;2022-12-24T08:54:02;15.10;;;4.72;;
58842;SDS011;44614;54.356;10.100;2022-12-24T08:56:28;11.52;;;4.05;;
58842;SDS011;44614;54.356;10.100;2022-12-24T08:58:53;11.20;;;4.82;;
58842;SDS011;44614;54.356;10.100;2022-12-24T09:01:18;13.45;;;5.25;;
58842;SDS011;44614;54.356;10.100;2022-12-24T09:03:44;10.30;;;4.10;;
58842;SDS011;44614;54.356;10.100;2022-12-24T09:06:10;10.70;;;4.28;;
58842;SDS011;44614;54.356;10.100;2022-12-24T09:08:37;11.20;;;6.35;;
58842;SDS011;44614;54.356;10.100;2022-12-24T09:11:12;22.33;;;8.68;;
58842;SDS011;44614;54.356;10.100;2022-12-24T09:13:40;12.07;;;6.05;;
58842;SDS011;44614;54.356;10.100;2022-12-24T09:16:06;10.05;;;4.63;;
58842;SDS011;44614;54.356;10.100;2022-12-24T09:18:32;11.80;;;5.30;;
58842;SDS011;44614;54.356;10.100;2022-12-24T09:20:59;13.25;;;5.75;;
58842;SDS011;44614;54.356;10.100;2022-12-24T09:23:29;12.35;;;4.88;;
58842;SDS011;44614;54.356;10.100;2022-12-24T09:25:55;11.30;;;5.40;;
58842;SDS011;44614;54.356;10.100;2022-12-24T09:28:21;9.75;;;4.85;;
58842;SDS011;44614;54.356;10.100;2022-12-24T09:30:56;9.30;;;3.95;;
58842;SDS011;44614;54.356;10.100;2022-12-24T09:33:23;9.55;;;3.90;;
58842;SDS011;44614;54.356;10.100;2022-12-24T09:35:50;14.55;;;5.13;;
58842;SDS011;44614;54.356;10.100;2022-12-24T09:38:16;13.13;;;5.47;;
58842;SDS011;44614;54.356;10.100;2022-12-24T09:40:42;10.05;;;3.50;;
58842;SDS011;44614;54.356;10.100;2022-12-24T09:43:20;10.43;;;3.92;;
58842;SDS011;44614;54.356;10.100;2022-12-24T09:49:02;16.60;;;5.13;;
58842;SDS011;44614;54.356;10.100;2022-12-24T09:51:35;9.10;;;4.72;;
58842;SDS011;44614;54.356;10.100;2022-12-24T09:54:07;9.40;;;4.50;;
58842;SDS011;44614;54.356;10.100;2022-12-24T09:56:46;11.45;;;4.55;;
58842;SDS011;44614;54.356;10.100;2022-12-24T09:59:13;16.60;;;5.80;;
58842;SDS011;44614;54.356;10.100;2022-12-24T10:01:41;9.35;;;3.88;;
58842;SDS011;44614;54.356;10.100;2022-12-24T10:04:13;9.05;;;4.32;;
58842;SDS011;44614;54.356;10.100;2022-12-24T10:23:22;10.32;;;3.97;;
58842;SDS011;44614;54.356;10.100;2022-12-24T10:31:18;9.60;;;4.10;;
58842;SDS011;44614;54.356;10.100;2022-12-24T10:33:49;9.02;;;3.80;;
58842;SDS011;44614;54.356;10.100;2022-12-24T10:36:26;9.80;;;3.67;;
58842;SDS011;44614;54.356;10.100;2022-12-24T10:38:53;7.25;;;3.03;;
58842;SDS011;44614;54.356;10.100;2022-12-24T10:41:20;7.00;;;2.95;;
58842;SDS011;44614;54.356;10.100;2022-12-24T10:43:46;8.88;;;2.80;;
58842;SDS011;44614;54.356;10.100;2022-12-24T10:48:44;9.98;;;3.17;;
58842;SDS011;44614;54.356;10.100;2022-12-24T10:51:29;10.18;;;3.88;;
58842;SDS011;44614;54.356;10.100;2022-12-24T10:54:05;9.52;;;3.00;;
58842;SDS011;44614;54.356;10.100;2022-12-24T10:56:43;6.63;;;2.97;;
58842;SDS011;44614;54.356;10.100;2022-12-24T11:01:58;5.15;;;2.65;;
58842;SDS011;44614;54.356;10.100;2022-12-24T11:04:25;9.35;;;2.75;;
58842;SDS011;44614;54.356;10.100;2022-12-24T11:06:54;5.40;;;2.00;;
58842;SDS011;44614;54.356;10.100;2022-12-24T11:09:24;5.55;;;2.45;;
58842;SDS011;44614;54.356;10.100;2022-12-24T11:11:51;7.47;;;3.28;;
58842;SDS011;44614;54.356;10.100;2022-12-24T11:14:18;9.13;;;3.53;;
58842;SDS011;44614;54.356;10.100;2022-12-24T11:16:52;10.45;;;3.25;;
58842;SDS011;44614;54.356;10.100;2022-12-24T11:19:22;8.05;;;2.88;;
58842;SDS011;44614;54.356;10.100;2022-12-24T11:22:04;10.85;;;2.55;;
58842;SDS011;44614;54.356;10.100;2022-12-24T11:24:35;7.00;;;2.72;;
58842;SDS011;44614;54.356;10.100;2022-12-24T11:27:21;7.75;;;3.03;;
58842;SDS011;44614;54.356;10.100;2022-12-24T11:29:47;5.40;;;2.55;;
58842;SDS011;44614;54.356;10.100;2022-12-24T11:32:21;8.25;;;2.75;;
58842;SDS011;44614;54.356;10.100;2022-12-24T11:34:47;7.25;;;3.20;;
58842;SDS011;44614;54.356;10.100;2022-12-24T11:39:39;7.53;;;3.47;;
58842;SDS011;44614;54.356;10.100;2022-12-24T11:42:05;6.40;;;3.25;;
58842;SDS011;44614;54.356;10.100;2022-12-24T11:44:47;8.88;;;3.53;;
58842;SDS011;44614;54.356;10.100;2022-12-24T11:47:14;5.55;;;2.28;;
58842;SDS011;44614;54.356;10.100;2022-12-24T11:49:39;4.82;;;2.25;;
58842;SDS011;44614;54.356;10.100;2022-12-24T11:52:11;7.70;;;2.70;;
58842;SDS011;44614;54.356;10.100;2022-12-24T11:57:46;4.95;;;2.20;;
58842;SDS011;44614;54.356;10.100;2022-12-24T12:00:27;6.53;;;2.92;;
58842;SDS011;44614;54.356;10.100;2022-12-24T12:02:54;6.75;;;2.45;;
58842;SDS011;44614;54.356;10.100;2022-12-24T12:05:26;9.23;;;2.70;;
58842;SDS011;44614;54.356;10.100;2022-12-24T12:08:07;6.90;;;3.42;;
58842;SDS011;44614;54.356;10.100;2022-12-24T12:10:38;6.68;;;2.03;;
58842;SDS011;44614;54.356;10.100;2022-12-24T12:13:08;9.00;;;2.70;;
58842;SDS011;44614;54.356;10.100;2022-12-24T12:15:46;6.97;;;2.83;;
58842;SDS011;44614;54.356;10.100;2022-12-24T12:18:19;9.48;;;4.05;;
58842;SDS011;44614;54.356;10.100;2022-12-24T12:20:49;6.47;;;3.20;;
58842;SDS011;44614;54.356;10.100;2022-12-24T12:23:19;8.60;;;2.83;;
58842;SDS011;44614;54.356;10.100;2022-12-24T12:28:48;7.18;;;2.42;;
58842;SDS011;44614;54.356;10.100;2022-12-24T12:31:49;6.20;;;3.47;;
58842;SDS011;44614;54.356;10.100;2022-12-24T12:34:26;6.90;;;2.90;;
58842;SDS011;44614;54.356;10.100;2022-12-24T12:37:01;4.50;;;2.17;;
58842;SDS011;44614;54.356;10.100;2022-12-24T12:39:31;7.80;;;2.55;;
58842;SDS011;44614;54.356;10.100;2022-12-24T12:47:50;4.55;;;2.15;;
58842;SDS011;44614;54.356;10.100;2022-12-24T12:50:39;5.25;;;3.10;;
58842;SDS011;44614;54.356;10.100;2022-12-24T12:53:22;5.20;;;2.90;;
58842;SDS011;44614;54.356;10.100;2022-12-24T12:58:44;7.30;;;3.63;;
58842;SDS011;44614;54.356;10.100;2022-12-24T13:04:45;7.43;;;3.13;;
58842;SDS011;44614;54.356;10.100;2022-12-24T13:13:32;8.25;;;4.28;;
58842;SDS011;44614;54.356;10.100;2022-12-24T13:21:33;8.13;;;4.22;;
58842;SDS011;44614;54.356;10.100;2022-12-24T13:24:06;7.55;;;2.92;;
58842;SDS011;44614;54.356;10.100;2022-12-24T13:26:38;8.23;;;3.88;;
58842;SDS011;44614;54.356;10.100;2022-12-24T13:32:12;6.60;;;3.47;;
58842;SDS011;44614;54.356;10.100;2022-12-24T13:34:45;6.88;;;4.05;;
58842;SDS011;44614;54.356;10.100;2022-12-24T13:37:22;9.07;;;3.47;;
58842;SDS011;44614;54.356;10.100;2022-12-24T13:47:57;12.93;;;4.85;;
58842;SDS011;44614;54.356;10.100;2022-12-24T13:50:49;12.07;;;5.45;;
58842;SDS011;44614;54.356;10.100;2022-12-24T13:55:56;10.15;;;5.10;;
58842;SDS011;44614;54.356;10.100;2022-12-24T13:58:29;12.32;;;5.28;;
58842;SDS011;44614;54.356;10.100;2022-12-24T14:01:05;8.30;;;4.38;;
58842;SDS011;44614;54.356;10.100;2022-12-24T14:03:56;14.80;;;5.18;;
58842;SDS011;44614;54.356;10.100;2022-12-24T14:06:36;11.82;;;5.38;;
58842;SDS011;44614;54.356;10.100;2022-12-24T14:09:08;13.23;;;6.50;;
58842;SDS011;44614;54.356;10.100;2022-12-24T14:14:28;18.40;;;6.72;;
58842;SDS011;44614;54.356;10.100;2022-12-24T14:16:58;9.18;;;5.18;;
58842;SDS011;44614;54.356;10.100;2022-12-24T14:19:32;12.10;;;5.43;;
58842;SDS011;44614;54.356;10.100;2022-12-24T14:22:13;19.77;;;7.07;;
58842;SDS011;44614;54.356;10.100;2022-12-24T14:25:24;12.35;;;5.68;;
58842;SDS011;44614;54.356;10.100;2022-12-24T14:27:51;13.77;;;6.50;;
58842;SDS011;44614;54.356;10.100;2022-12-24T14:30:23;11.32;;;5.22;;
58842;SDS011;44614;54.356;10.100;2022-12-24T14:32:50;18.85;;;6.75;;
58842;SDS011;44614;54.356;10.100;2022-12-24T14:35:24;11.52;;;6.10;;
58842;SDS011;44614;54.356;10.100;2022-12-24T14:43:29;16.00;;;8.40;;
58842;SDS011;44614;54.356;10.100;2022-12-24T14:47:18;15.35;;;5.18;;
58842;SDS011;44614;54.356;10.100;2022-12-24T14:54:46;17.55;;;7.38;;
58842;SDS011;44614;54.356;10.100;2022-12-24T14:57:13;11.75;;;6.22;;
58842;SDS011;44614;54.356;10.100;2022-12-24T14:59:46;18.48;;;5.88;;
58842;SDS011;44614;54.356;10.100;2022-12-24T15:07:31;12.77;;;6.03;;
58842;SDS011;44614;54.356;10.100;2022-12-24T15:09:59;13.65;;;5.57;;
58842;SDS011;44614;54.356;10.100;2022-12-24T15:12:27;23.42;;;7.78;;
58842;SDS011;44614;54.356;10.100;2022-12-24T15:14:52;13.55;;;6.75;;
58842;SDS011;44614;54.356;10.100;2022-12-24T15:17:18;23.60;;;8.77;;
58842;SDS011;44614;54.356;10.100;2022-12-24T15:19:45;15.05;;;6.03;;
58842;SDS011;44614;54.356;10.100;2022-12-24T15:22:17;13.43;;;6.32;;
58842;SDS011;44614;54.356;10.100;2022-12-24T15:24:46;21.02;;;6.75;;
58842;SDS011;44614;54.356;10.100;2022-12-24T15:27:16;14.10;;;6.43;;
58842;SDS011;44614;54.356;10.100;2022-12-24T15:29:43;13.82;;;5.47;;
58842;SDS011;44614;54.356;10.100;2022-12-24T15:32:11;20.48;;;6.97;;
58842;SDS011;44614;54.356;10.100;2022-12-24T15:40:24;14.38;;;6.10;;
58842;SDS011;44614;54.356;10.100;2022-12-24T15:42:46;14.00;;;7.13;;
58842;SDS011;44614;54.356;10.100;2022-12-24T15:45:13;15.50;;;7.63;;
58842;SDS011;44614;54.356;10.100;2022-12-24T15:47:53;17.02;;;6.93;;
58842;SDS011;44614;54.356;10.100;2022-12-24T15:50:31;15.98;;;7.65;;
58842;SDS011;44614;54.356;10.100;2022-12-24T15:53:00;15.10;;;7.38;;
58842;SDS011;44614;54.356;10.100;2022-12-24T15:55:27;19.23;;;7.53;;
58842;SDS011;44614;54.356;10.100;2022-12-24T16:00:20;13.90;;;6.65;;
58842;SDS011;44614;54.356;10.100;2022-12-24T16:02:47;17.48;;;7.75;;
58842;SDS011;44614;54.356;10.100;2022-12-24T16:05:16;17.08;;;8.77;;
58842;SDS011;44614;54.356;10.100;2022-12-24T16:07:42;21.58;;;10.20;;
58842;SDS011;44614;54.356;10.100;2022-12-24T16:10:34;22.08;;;8.68;;
58842;SDS011;44614;54.356;10.100;2022-12-24T16:13:08;18.55;;;7.43;;
58842;SDS011;44614;54.356;10.100;2022-12-24T16:15:58;18.45;;;8.18;;
58842;SDS011;44614;54.356;10.100;2022-12-24T16:18:30;16.88;;;7.63;;
58842;SDS011;44614;54.356;10.100;2022-12-24T16:20:58;19.38;;;7.43;;
58842;SDS011;44614;54.356;10.100;2022-12-24T16:23:36;18.67;;;7.53;;
58842;SDS011;44614;54.356;10.100;2022-12-24T16:26:03;23.02;;;8.93;;
58842;SDS011;44614;54.356;10.100;2022-12-24T16:28:29;17.38;;;7.93;;
58842;SDS011;44614;54.356;10.100;2022-12-24T16:30:55;20.40;;;8.15;;
58842;SDS011;44614;54.356;10.100;2022-12-24T16:33:21;19.38;;;8.02;;
58842;SDS011;44614;54.356;10.100;2022-12-24T16:35:47;22.37;;;10.20;;
58842;SDS011;44614;54.356;10.100;2022-12-24T16:38:14;23.50;;;9.52;;
58842;SDS011;44614;54.356;10.100;2022-12-24T16:40:40;15.50;;;7.77;;
58842;SDS011;44614;54.356;10.100;2022-12-24T16:43:06;20.00;;;8.57;;
58842;SDS011;44614;54.356;10.100;2022-12-24T16:45:51;26.60;;;9.73;;
58842;SDS011;44614;54.356;10.100;2022-12-24T16:48:18;25.60;;;8.82;;
58842;SDS011;44614;54.356;10.100;2022-12-24T16:50:45;21.88;;;8.10;;
58842;SDS011;44614;54.356;10.100;2022-12-24T16:53:12;16.77;;;7.38;;